Maldives Meteorological Service

TAFS

Station TAF
VRMM
VRMM 171700Z 1718/1824 23014KT 9999 FEW018 TEMPO 1718/1824 27018G35KT 4000 TSRA FEW017CB=
VRMH
VRMH 171700Z 1718/1818 25014KT 9999 FEW017 TEMPO 1718/1724 29020G38KT 3000 TSRA FEW017CB=
VRMK
VRMK 171700Z 1718/1818 18008KT 9999 FEW018 TEMPO 1718/1724 5000 -TSRA FEW017CB=
VRMT
VRMT 171700Z 1718/1818 17011KT 9999 FEW018 TEMPO 1721/1803 5000 -TSRA FEW017CB=
VRMG
VRMG 171700Z 1718/1824 18012KT 9999 FEW018 TEMPO 1719/1801 5000 -SHRA FEW018CB=